FNKU

Kuito Airport

Kuito, Angola
METAR FNKU 171600Z 18005KT 9999 FEW022 26/20 Q1016
Observed Flight Rules
Dec-17 @ 16:00 UTC (5 hours ago) Visual Flight Rules
Wind Visibility Clouds
180° at 5 knots 10,000+ meters
  • Few at 2,200' AGL
Temperatures Readings
Current 26°C / 79°F
Dewpoint 20°C / 68°F
Humidity 70%
Altimeter 30" Hg
Pressure 1016 hPa
Elevation 1699
METAR FNKU 171600Z 18005KT 9999 FEW022 26/20 Q1016
Observed Flight Rules
Dec-17 @ 16:00 UTC
(5 hours ago)
VFR
Wind Visibility
180° at 5 knots 10,000+ meters
Clouds
  • Few at 2,200' AGL
Temperature Dewpoint
26°C / 79°F 20°C / 68°F
Humidity Altimeter Pressure
70% 30" Hg 1016 hPa